Sentaimaru — JD2823 — position and weather

sailwx.info

Track history (hours):
 
Tides and Currents Weather Stations Pressure Air Temp Water Temp Dewpoint Dewpoint Depression Visibility Wind Speed Wind Dir Waves Ship Positions

Sentaimaru

Last reported at 2018-Feb-20 05:00 UTC. Time now 2018-Feb-20 05:13 UTC.
Position N 35°25' E 139°43'.

Length 60 m; draft 4.2 m.

Type: Tanker. MMSI: 431000781.

Date/timePositionNaut miles runAvg speedWind from/ knotsBaromVisibWave heightAir tempDewpointWater temp
2018-Feb-20 05:00N 35°25' E 139°43'510.9
2018-Feb-20 04:30N 35°28' E 139°48'1 2.1
2018-Feb-20 04:00N 35°29' E 139°49'0 0.0
2018-Feb-20 03:30N 35°29' E 139°49'0 0.0
2018-Feb-20 03:00N 35°29' E 139°49'2 3.5
2018-Feb-20 02:30N 35°30' E 139°47'2 3.3
2018-Feb-20 02:00N 35°32' E 139°46'0 0.0
2018-Feb-20 01:30N 35°32' E 139°46'0 0.0
2018-Feb-20 01:00N 35°32' E 139°46'0 0.0
2018-Feb-20 00:30N 35°32' E 139°46'0 0.0
2018-Feb-20 00:00N 35°32' E 139°46'0 0.0
2018-Feb-19 23:31N 35°32' E 139°46'0 0.0
2018-Feb-19 23:00N 35°32' E 139°46'0 0.0
2018-Feb-19 22:30N 35°32' E 139°46'0 0.1
2018-Feb-19 22:00N 35°32' E 139°46'3 6.4
2018-Feb-19 21:30N 35°30' E 139°49'0 0.3
2018-Feb-19 21:00N 35°29' E 139°49'0 0.0
2018-Feb-19 20:30N 35°29' E 139°49'0 0.0
2018-Feb-19 19:59N 35°29' E 139°49'0 0.0
2018-Feb-19 19:30N 35°29' E 139°49'0 0.0
2018-Feb-19 19:00N 35°29' E 139°49'0 0.0
2018-Feb-19 18:30N 35°29' E 139°49'0 0.0
2018-Feb-19 17:59N 35°29' E 139°49'0 0.0
2018-Feb-19 17:29N 35°29' E 139°49'0 0.0
2018-Feb-19 17:00N 35°29' E 139°49'0 0.0
2018-Feb-19 16:29N 35°29' E 139°49'0 0.0
2018-Feb-19 16:00N 35°29' E 139°49'0 0.0
2018-Feb-19 15:30N 35°29' E 139°49'510.5
2018-Feb-19 15:01N 35°25' E 139°46'611.4
2018-Feb-19 14:30N 35°19' E 139°44'510.9
2018-Feb-19 14:00N 35°14' E 139°47'611.4
2018-Feb-19 13:30N 35°09' E 139°46'612.1
2018-Feb-19 13:00N 35°03' E 139°44'811.7
2018-Feb-19 12:18N 34°55' E 139°46'4 9.7
2018-Feb-19 11:56N 34°52' E 139°50'8 9.3
2018-Feb-19 11:05N 34°54' E 139°59'311.5
2018-Feb-19 10:49N 34°56' E 140°02'412.2
2018-Feb-19 10:29N 34°58' E 140°06'19 0.9
2018-Feb-18 12:47N 35°03' E 139°44'311.5
2018-Feb-18 12:30N 35°06' E 139°45'611.9
2018-Feb-18 12:00N 35°12' E 139°46'611.9
2018-Feb-18 11:30N 35°18' E 139°45'611.7
2018-Feb-18 11:00N 35°23' E 139°43'611.5
2018-Feb-18 10:30N 35°27' E 139°47'711.6
2018-Feb-18 09:54N 35°31' E 139°55'511.4
2018-Feb-18 09:30N 35°33' E 140°00'5 9.2
2018-Feb-18 09:00N 35°32' E 140°06'0 0.1
2018-Feb-18 08:30N 35°32' E 140°06'0 0.0
2018-Feb-18 07:58N 35°32' E 140°06'0 0.0
2018-Feb-18 07:28N 35°32' E 140°06'0 0.0
2018-Feb-18 07:00N 35°32' E 140°06'0 0.0
2018-Feb-18 06:30N 35°32' E 140°06'0 0.0
2018-Feb-18 06:00N 35°32' E 140°06'0 0.0
2018-Feb-18 05:30N 35°32' E 140°06'0 0.0
2018-Feb-18 04:58N 35°32' E 140°06'0 0.0
2018-Feb-18 04:29N 35°32' E 140°06'0 0.0
2018-Feb-18 03:58N 35°32' E 140°06'0 0.0
2018-Feb-18 03:27N 35°32' E 140°06'0 0.0
2018-Feb-18 02:56N 35°32' E 140°06'2 3.6
2018-Feb-18 02:30N 35°33' E 140°04'611.9
2018-Feb-18 02:00N 35°32' E 139°57'611.6
2018-Feb-18 01:28N 35°28' E 139°51'511.5
2018-Feb-18 01:00N 35°24' E 139°46'511.0
2018-Feb-18 00:30N 35°19' E 139°44'510.8
2018-Feb-18 00:00N 35°14' E 139°47'511.0
2018-Feb-17 23:30N 35°09' E 139°46'611.4
2018-Feb-17 23:01N 35°04' E 139°42'712.2
2018-Feb-17 22:28N 34°60' E 139°36'2212.5
2018-Feb-17 20:40N 34°46' E 139°14'311.3
2018-Feb-17 20:26N 34°45' E 139°12'511.0
2018-Feb-17 19:59N 34°42' E 139°07'711.4
2018-Feb-17 19:20N 34°37' E 138°60'411.3
2018-Feb-17 18:59N 34°35' E 138°56'10811.6
2018-Feb-17 09:43N 34°49' E 136°45'312.6
2018-Feb-17 09:30N 34°52' E 136°45'612.1
2018-Feb-17 09:01N 34°57' E 136°47'611.1
2018-Feb-17 08:31N 35°02' E 136°51'1 2.4
2018-Feb-17 08:00N 35°03' E 136°52'0 0.0
2018-Feb-17 07:31N 35°03' E 136°52'0 0.0
2018-Feb-17 07:01N 35°03' E 136°52'0 0.0
2018-Feb-17 06:30N 35°03' E 136°52'0 0.0
2018-Feb-17 06:00N 35°03' E 136°52'0 0.0
2018-Feb-17 05:30N 35°03' E 136°52'0 0.1
2018-Feb-17 05:00N 35°03' E 136°52'1 2.0
2018-Feb-17 04:30N 35°02' E 136°51'5 9.8
2018-Feb-17 04:00N 34°59' E 136°47'1 2.8
2018-Feb-17 03:31N 34°58' E 136°45'4 7.6
2018-Feb-17 03:01N 34°57' E 136°41'2 4.3
2018-Feb-17 02:30N 34°57' E 136°38'0 0.0
2018-Feb-17 02:00N 34°57' E 136°38'0 0.0
2018-Feb-17 01:30N 34°57' E 136°38'0 0.0
2018-Feb-17 00:56N 34°57' E 136°38'0 0.0
2018-Feb-17 00:29N 34°57' E 136°38'0 0.0
2018-Feb-16 23:58N 34°57' E 136°38'2 4.2
2018-Feb-16 23:30N 34°57' E 136°41'0 0.4
2018-Feb-16 23:00N 34°57' E 136°41'0 0.0
2018-Feb-16 22:31N 34°57' E 136°41'0 0.0
2018-Feb-16 22:00N 34°57' E 136°41'0 0.0
2018-Feb-16 21:30N 34°57' E 136°41'0 0.0
2018-Feb-16 21:00N 34°57' E 136°41'0 0.1
2018-Feb-16 20:31N 34°57' E 136°41'0 0.1
2018-Feb-16 20:00N 34°57' E 136°41'0 0.0
2018-Feb-16 19:30N 34°57' E 136°41'0 0.0
2018-Feb-16 19:00N 34°57' E 136°41'0 0.0
2018-Feb-16 18:30N 34°57' E 136°41'0 0.2
2018-Feb-16 18:00N 34°57' E 136°41'0 0.0
2018-Feb-16 17:30N 34°57' E 136°41'0 0.0
2018-Feb-16 17:00N 34°57' E 136°41'0 0.1
2018-Feb-16 16:30N 34°57' E 136°41'0 0.1
2018-Feb-16 16:00N 34°57' E 136°41'0 0.0
2018-Feb-16 15:31N 34°57' E 136°41'0 0.0
2018-Feb-16 15:00N 34°57' E 136°41'0 0.0
2018-Feb-16 14:30N 34°57' E 136°41'0 0.0
2018-Feb-16 14:01N 34°57' E 136°41'0 0.1
2018-Feb-16 13:31N 34°57' E 136°41'0 0.0
2018-Feb-16 13:00N 34°57' E 136°41'0 0.0
2018-Feb-16 12:30N 34°57' E 136°41'0 0.0
2018-Feb-16 12:00N 34°57' E 136°41'0 0.1
2018-Feb-16 11:30N 34°57' E 136°41'0 0.0
2018-Feb-16 11:00N 34°57' E 136°41'0 0.0
2018-Feb-16 10:30N 34°57' E 136°41'0 0.0
2018-Feb-16 10:00N 34°57' E 136°41'0 0.0
2018-Feb-16 09:30N 34°57' E 136°41'0 0.0
2018-Feb-16 09:00N 34°57' E 136°41'0 0.0
2018-Feb-16 08:30N 34°57' E 136°41'0 0.0
2018-Feb-16 07:59N 34°57' E 136°41'0 0.0
2018-Feb-16 07:30N 34°57' E 136°41'0 0.0
2018-Feb-16 07:00N 34°57' E 136°41'0 0.0
2018-Feb-16 06:30N 34°57' E 136°41'0 0.0
2018-Feb-16 06:00N 34°57' E 136°41'0 0.0
2018-Feb-16 05:31N 34°57' E 136°41'0 0.0
2018-Feb-16 05:01N 34°57' E 136°41'4 7.1
2018-Feb-16 04:30N 34°54' E 136°42'611.7
2018-Feb-16 04:01N 34°48' E 136°45'611.5
2018-Feb-16 03:28N 34°42' E 136°46'511.4
2018-Feb-16 03:00N 34°37' E 136°47'9 9.7
2018-Feb-16 02:07N 34°30' E 136°52'101 7.7
2018-Feb-15 12:54N 33°56' E 134°57'911.7
2018-Feb-15 12:07N 34°03' E 134°50'111.7
2018-Feb-15 12:00N 34°04' E 134°49'1511.0
2018-Feb-15 10:36N 34°15' E 134°37'110.6
2018-Feb-15 10:29N 34°16' E 134°35'1 1.3
2018-Feb-15 10:00N 34°16' E 134°36'1 1.1
2018-Feb-15 09:29N 34°16' E 134°36'0 0.8
2018-Feb-15 09:00N 34°17' E 134°37'0 0.5
2018-Feb-15 08:30N 34°17' E 134°37'3 3.7
2018-Feb-15 07:49N 34°18' E 134°34'3 9.5
2018-Feb-15 07:30N 34°18' E 134°31'5 9.8
2018-Feb-15 07:00N 34°20' E 134°25'87 1.8
2018-Feb-13 07:08N 34°05' E 132°42'211.8
2018-Feb-13 07:00N 34°04' E 132°41'4911.2
2018-Feb-13 02:39N 33°30' E 131°58'211.0
2018-Feb-13 02:29N 33°29' E 131°57'611.3
2018-Feb-13 01:59N 33°25' E 131°52'611.9
2018-Feb-13 01:30N 33°21' E 131°46'611.8
2018-Feb-13 01:00N 33°18' E 131°41'2 3.4
2018-Feb-13 00:30N 33°16' E 131°40'0 0.0
2018-Feb-12 23:57N 33°16' E 131°40'0 0.0
2018-Feb-12 23:30N 33°16' E 131°40'0 0.0
2018-Feb-12 22:59N 33°16' E 131°40'2 2.7
2018-Feb-12 22:18N 33°17' E 131°38'2 5.7
2018-Feb-12 21:54N 33°15' E 131°36'0 0.4
2018-Feb-12 21:30N 33°15' E 131°36'0 0.0
2018-Feb-12 21:00N 33°15' E 131°36'0 0.0
2018-Feb-12 20:28N 33°15' E 131°36'0 0.0
2018-Feb-12 20:01N 33°15' E 131°36'0 0.0
2018-Feb-12 19:31N 33°15' E 131°36'0 0.0
2018-Feb-12 19:01N 33°15' E 131°36'0 0.0
2018-Feb-12 18:31N 33°15' E 131°36'0 0.0
2018-Feb-12 18:01N 33°15' E 131°36'0 0.0
2018-Feb-12 17:30N 33°15' E 131°36'0 0.0
2018-Feb-12 17:00N 33°15' E 131°36'0 0.0
2018-Feb-12 16:31N 33°15' E 131°36'0 0.0
2018-Feb-12 16:00N 33°15' E 131°36'0 0.0
2018-Feb-12 15:30N 33°15' E 131°36'0 0.0
2018-Feb-12 15:00N 33°15' E 131°36'0 0.0
2018-Feb-12 14:04N 33°15' E 131°36'0 0.0
2018-Feb-12 14:00N 33°15' E 131°36'0 0.0
2018-Feb-12 13:30N 33°15' E 131°36'0 0.0
2018-Feb-12 13:01N 33°15' E 131°36'0 0.0
2018-Feb-12 12:30N 33°15' E 131°36'0 0.0
2018-Feb-12 11:59N 33°15' E 131°36'0 0.0
2018-Feb-12 11:30N 33°15' E 131°36'0 0.0
2018-Feb-12 10:59N 33°15' E 131°36'0 0.0
2018-Feb-12 10:30N 33°15' E 131°36'0 0.0
2018-Feb-12 09:59N 33°15' E 131°36'0 0.0
2018-Feb-12 09:20N 33°15' E 131°36'0 0.0
2018-Feb-12 08:51N 33°15' E 131°36'0 0.0
2018-Feb-12 08:30N 33°15' E 131°36'0 0.0
2018-Feb-12 08:01N 33°15' E 131°36'0 0.0
2018-Feb-12 07:29N 33°15' E 131°36'0 0.0
2018-Feb-12 06:59N 33°15' E 131°36'0 0.0
2018-Feb-12 06:29N 33°15' E 131°36'0 0.0
2018-Feb-12 05:59N 33°15' E 131°36'0 0.0
2018-Feb-12 05:29N 33°15' E 131°36'0 0.0
2018-Feb-12 05:01N 33°15' E 131°36'0 0.0
2018-Feb-12 04:30N 33°15' E 131°36'0 0.0
2018-Feb-12 04:00N 33°15' E 131°36'0 0.0
2018-Feb-12 03:29N 33°15' E 131°36'0 0.0
2018-Feb-12 03:00N 33°15' E 131°36'0 0.0
2018-Feb-12 02:31N 33°15' E 131°36'0 0.0
2018-Feb-12 01:57N 33°15' E 131°36'0 0.0
2018-Feb-12 01:31N 33°15' E 131°36'0 0.0
2018-Feb-12 01:01N 33°15' E 131°36'0 0.0
2018-Feb-12 00:31N 33°15' E 131°36'0 0.0
2018-Feb-12 00:01N 33°15' E 131°36'0 0.0
2018-Feb-11 23:31N 33°15' E 131°36'0 0.0
2018-Feb-11 23:00N 33°15' E 131°36'0 0.0
2018-Feb-11 22:30N 33°15' E 131°36'0 0.0
2018-Feb-11 22:00N 33°15' E 131°36'0 0.0
2018-Feb-11 21:30N 33°15' E 131°36'0 0.0
2018-Feb-11 21:01N 33°15' E 131°36'0 0.0
2018-Feb-11 20:30N 33°15' E 131°36'0 0.0
2018-Feb-11 20:00N 33°15' E 131°36'0 0.0
2018-Feb-11 19:30N 33°15' E 131°36'0 0.0
2018-Feb-11 19:01N 33°15' E 131°36'0 0.0
2018-Feb-11 18:31N 33°15' E 131°36'0 0.0
2018-Feb-11 18:01N 33°15' E 131°36'0 0.0
2018-Feb-11 17:30N 33°15' E 131°36'0 0.0
2018-Feb-11 17:00N 33°15' E 131°36'0 0.0
2018-Feb-11 16:30N 33°15' E 131°36'0 0.0
2018-Feb-11 16:00N 33°15' E 131°36'0 0.0
2018-Feb-11 15:30N 33°15' E 131°36'0 0.0
2018-Feb-11 14:59N 33°15' E 131°36'0 0.0
2018-Feb-11 14:22N 33°15' E 131°36'0 0.0
2018-Feb-11 13:17N 33°15' E 131°36'0 0.0
2018-Feb-11 13:00N 33°15' E 131°36'0 0.0
2018-Feb-11 12:29N 33°15' E 131°36'0 0.0
2018-Feb-11 12:00N 33°15' E 131°36'0 0.0
2018-Feb-11 11:30N 33°15' E 131°36'0 0.0
2018-Feb-11 11:00N 33°15' E 131°36'0 0.0
2018-Feb-11 10:30N 33°15' E 131°36'0 0.0
2018-Feb-11 10:01N 33°15' E 131°36'0 0.0
2018-Feb-11 09:30N 33°15' E 131°36'0 0.0
2018-Feb-11 09:00N 33°15' E 131°36'2 4.0
2018-Feb-11 08:30N 33°17' E 131°37'611.9
2018-Feb-11 08:00N 33°22' E 131°41'711.9
2018-Feb-11 07:23N 33°28' E 131°46'511.9
2018-Feb-11 06:59N 33°33' E 131°47'611.8
2018-Feb-11 06:30N 33°38' E 131°44'612.3
2018-Feb-11 06:00N 33°42' E 131°38'612.3
2018-Feb-11 05:30N 33°44' E 131°31'612.5
2018-Feb-11 05:00N 33°47' E 131°24'612.4
2018-Feb-11 04:30N 33°49' E 131°18'612.3
2018-Feb-11 04:01N 33°52' E 131°11'612.4
2018-Feb-11 03:30N 33°55' E 131°05'611.3
2018-Feb-11 03:00N 33°58' E 130°59'4 8.9
2018-Feb-11 02:30N 33°55' E 130°56'4 7.7
2018-Feb-11 02:01N 33°55' E 130°51'0 0.1
2018-Feb-11 01:31N 33°55' E 130°51'0 0.0
2018-Feb-11 01:00N 33°55' E 130°51'0 0.0
2018-Feb-11 00:29N 33°55' E 130°51'0 0.0
2018-Feb-11 00:01N 33°55' E 130°51'0 0.0
2018-Feb-10 23:30N 33°55' E 130°51'0 0.0
2018-Feb-10 23:01N 33°55' E 130°51'1 1.5
2018-Feb-10 22:30N 33°55' E 130°52'5 9.5
2018-Feb-10 22:01N 33°57' E 130°57'510.2
2018-Feb-10 21:30N 33°58' E 131°03'0 0.8
2018-Feb-10 21:00N 33°58' E 131°03'0 0.0
2018-Feb-10 20:30N 33°58' E 131°03'0 0.0
2018-Feb-10 20:00N 33°58' E 131°03'0 0.0
2018-Feb-10 19:29N 33°58' E 131°03'0 0.0
2018-Feb-10 19:00N 33°58' E 131°03'0 0.0
2018-Feb-10 18:30N 33°58' E 131°03'0 0.0
2018-Feb-10 18:00N 33°58' E 131°03'0 0.0
2018-Feb-10 17:30N 33°58' E 131°03'0 0.1
2018-Feb-10 17:00N 33°58' E 131°03'0 0.0
2018-Feb-10 16:30N 33°58' E 131°03'0 0.0
2018-Feb-10 16:00N 33°58' E 131°03'0 0.0
2018-Feb-10 15:30N 33°58' E 131°03'0 0.0
2018-Feb-10 14:59N 33°58' E 131°03'0 0.0
2018-Feb-10 14:30N 33°58' E 131°03'0 0.0
2018-Feb-10 13:59N 33°58' E 131°03'0 0.0
2018-Feb-10 13:30N 33°58' E 131°03'0 0.0
2018-Feb-10 13:00N 33°58' E 131°03'0 0.0
2018-Feb-10 12:30N 33°58' E 131°03'0 0.0
2018-Feb-10 12:00N 33°58' E 131°03'0 0.0
2018-Feb-10 11:29N 33°58' E 131°03'0 0.0
2018-Feb-10 11:00N 33°58' E 131°03'0 0.0
2018-Feb-10 10:30N 33°58' E 131°03'0 0.1
2018-Feb-10 10:01N 33°58' E 131°03'0 0.0
2018-Feb-10 09:30N 33°58' E 131°03'5 9.3
2018-Feb-10 09:00N 33°55' E 131°08'511.0
2018-Feb-10 08:30N 33°52' E 131°13'611.1
2018-Feb-10 08:00N 33°51' E 131°20'611.1
2018-Feb-10 07:30N 33°50' E 131°26'510.9
2018-Feb-10 07:00N 33°49' E 131°33'510.9
2018-Feb-10 06:30N 33°48' E 131°39'611.1
2018-Feb-10 05:58N 33°47' E 131°46'511.4
2018-Feb-10 05:30N 33°46' E 131°53'  
Track history (hours):
 
Tides and Currents Weather Stations Pressure Air Temp Water Temp Dewpoint Dewpoint Depression Visibility Wind Speed Wind Dir Waves Ship Positions

Sentaimaru

Last reported at 2018-Feb-20 05:00 UTC. Time now 2018-Feb-20 05:13 UTC.
Position N 35°25' E 139°43'.

Length 60 m; draft 4.2 m.

Type: Tanker. MMSI: 431000781.

Date/timePositionNaut miles runAvg speedWind from/ knotsBaromVisibWave heightAir tempDewpointWater temp
2018-Feb-20 05:00N 35°25' E 139°43'510.9
2018-Feb-20 04:30N 35°28' E 139°48'1 2.1
2018-Feb-20 04:00N 35°29' E 139°49'0 0.0
2018-Feb-20 03:30N 35°29' E 139°49'0 0.0
2018-Feb-20 03:00N 35°29' E 139°49'2 3.5
2018-Feb-20 02:30N 35°30' E 139°47'2 3.3
2018-Feb-20 02:00N 35°32' E 139°46'0 0.0
2018-Feb-20 01:30N 35°32' E 139°46'0 0.0
2018-Feb-20 01:00N 35°32' E 139°46'0 0.0
2018-Feb-20 00:30N 35°32' E 139°46'0 0.0
2018-Feb-20 00:00N 35°32' E 139°46'0 0.0
2018-Feb-19 23:31N 35°32' E 139°46'0 0.0
2018-Feb-19 23:00N 35°32' E 139°46'0 0.0
2018-Feb-19 22:30N 35°32' E 139°46'0 0.1
2018-Feb-19 22:00N 35°32' E 139°46'3 6.4
2018-Feb-19 21:30N 35°30' E 139°49'0 0.3
2018-Feb-19 21:00N 35°29' E 139°49'0 0.0
2018-Feb-19 20:30N 35°29' E 139°49'0 0.0
2018-Feb-19 19:59N 35°29' E 139°49'0 0.0
2018-Feb-19 19:30N 35°29' E 139°49'0 0.0
2018-Feb-19 19:00N 35°29' E 139°49'0 0.0
2018-Feb-19 18:30N 35°29' E 139°49'0 0.0
2018-Feb-19 17:59N 35°29' E 139°49'0 0.0
2018-Feb-19 17:29N 35°29' E 139°49'0 0.0
2018-Feb-19 17:00N 35°29' E 139°49'0 0.0
2018-Feb-19 16:29N 35°29' E 139°49'0 0.0
2018-Feb-19 16:00N 35°29' E 139°49'0 0.0
2018-Feb-19 15:30N 35°29' E 139°49'510.5
2018-Feb-19 15:01N 35°25' E 139°46'611.4
2018-Feb-19 14:30N 35°19' E 139°44'510.9
2018-Feb-19 14:00N 35°14' E 139°47'611.4
2018-Feb-19 13:30N 35°09' E 139°46'612.1
2018-Feb-19 13:00N 35°03' E 139°44'811.7
2018-Feb-19 12:18N 34°55' E 139°46'4 9.7
2018-Feb-19 11:56N 34°52' E 139°50'8 9.3
2018-Feb-19 11:05N 34°54' E 139°59'311.5
2018-Feb-19 10:49N 34°56' E 140°02'412.2
2018-Feb-19 10:29N 34°58' E 140°06'19 0.9
2018-Feb-18 12:47N 35°03' E 139°44'311.5
2018-Feb-18 12:30N 35°06' E 139°45'611.9
2018-Feb-18 12:00N 35°12' E 139°46'611.9
2018-Feb-18 11:30N 35°18' E 139°45'611.7
2018-Feb-18 11:00N 35°23' E 139°43'611.5
2018-Feb-18 10:30N 35°27' E 139°47'711.6
2018-Feb-18 09:54N 35°31' E 139°55'511.4
2018-Feb-18 09:30N 35°33' E 140°00'5 9.2
2018-Feb-18 09:00N 35°32' E 140°06'0 0.1
2018-Feb-18 08:30N 35°32' E 140°06'0 0.0
2018-Feb-18 07:58N 35°32' E 140°06'0 0.0
2018-Feb-18 07:28N 35°32' E 140°06'0 0.0
2018-Feb-18 07:00N 35°32' E 140°06'0 0.0
2018-Feb-18 06:30N 35°32' E 140°06'0 0.0
2018-Feb-18 06:00N 35°32' E 140°06'0 0.0
2018-Feb-18 05:30N 35°32' E 140°06'0 0.0
2018-Feb-18 04:58N 35°32' E 140°06'0 0.0
2018-Feb-18 04:29N 35°32' E 140°06'0 0.0
2018-Feb-18 03:58N 35°32' E 140°06'0 0.0
2018-Feb-18 03:27N 35°32' E 140°06'0 0.0
2018-Feb-18 02:56N 35°32' E 140°06'2 3.6
2018-Feb-18 02:30N 35°33' E 140°04'611.9
2018-Feb-18 02:00N 35°32' E 139°57'611.6
2018-Feb-18 01:28N 35°28' E 139°51'511.5
2018-Feb-18 01:00N 35°24' E 139°46'511.0
2018-Feb-18 00:30N 35°19' E 139°44'510.8
2018-Feb-18 00:00N 35°14' E 139°47'511.0
2018-Feb-17 23:30N 35°09' E 139°46'611.4
2018-Feb-17 23:01N 35°04' E 139°42'712.2
2018-Feb-17 22:28N 34°60' E 139°36'2212.5
2018-Feb-17 20:40N 34°46' E 139°14'311.3
2018-Feb-17 20:26N 34°45' E 139°12'511.0
2018-Feb-17 19:59N 34°42' E 139°07'711.4
2018-Feb-17 19:20N 34°37' E 138°60'411.3
2018-Feb-17 18:59N 34°35' E 138°56'10811.6
2018-Feb-17 09:43N 34°49' E 136°45'312.6
2018-Feb-17 09:30N 34°52' E 136°45'612.1
2018-Feb-17 09:01N 34°57' E 136°47'611.1
2018-Feb-17 08:31N 35°02' E 136°51'1 2.4
2018-Feb-17 08:00N 35°03' E 136°52'0 0.0
2018-Feb-17 07:31N 35°03' E 136°52'0 0.0
2018-Feb-17 07:01N 35°03' E 136°52'0 0.0
2018-Feb-17 06:30N 35°03' E 136°52'0 0.0
2018-Feb-17 06:00N 35°03' E 136°52'0 0.0
2018-Feb-17 05:30N 35°03' E 136°52'0 0.1
2018-Feb-17 05:00N 35°03' E 136°52'1 2.0
2018-Feb-17 04:30N 35°02' E 136°51'5 9.8
2018-Feb-17 04:00N 34°59' E 136°47'1 2.8
2018-Feb-17 03:31N 34°58' E 136°45'4 7.6
2018-Feb-17 03:01N 34°57' E 136°41'2 4.3
2018-Feb-17 02:30N 34°57' E 136°38'0 0.0
2018-Feb-17 02:00N 34°57' E 136°38'0 0.0
2018-Feb-17 01:30N 34°57' E 136°38'0 0.0
2018-Feb-17 00:56N 34°57' E 136°38'0 0.0
2018-Feb-17 00:29N 34°57' E 136°38'0 0.0
2018-Feb-16 23:58N 34°57' E 136°38'2 4.2
2018-Feb-16 23:30N 34°57' E 136°41'0 0.4
2018-Feb-16 23:00N 34°57' E 136°41'0 0.0
2018-Feb-16 22:31N 34°57' E 136°41'0 0.0
2018-Feb-16 22:00N 34°57' E 136°41'0 0.0
2018-Feb-16 21:30N 34°57' E 136°41'0 0.0
2018-Feb-16 21:00N 34°57' E 136°41'0 0.1
2018-Feb-16 20:31N 34°57' E 136°41'0 0.1
2018-Feb-16 20:00N 34°57' E 136°41'0 0.0
2018-Feb-16 19:30N 34°57' E 136°41'0 0.0
2018-Feb-16 19:00N 34°57' E 136°41'0 0.0
2018-Feb-16 18:30N 34°57' E 136°41'0 0.2
2018-Feb-16 18:00N 34°57' E 136°41'0 0.0
2018-Feb-16 17:30N 34°57' E 136°41'0 0.0
2018-Feb-16 17:00N 34°57' E 136°41'0 0.1
2018-Feb-16 16:30N 34°57' E 136°41'0 0.1
2018-Feb-16 16:00N 34°57' E 136°41'0 0.0
2018-Feb-16 15:31N 34°57' E 136°41'0 0.0
2018-Feb-16 15:00N 34°57' E 136°41'0 0.0
2018-Feb-16 14:30N 34°57' E 136°41'0 0.0
2018-Feb-16 14:01N 34°57' E 136°41'0 0.1
2018-Feb-16 13:31N 34°57' E 136°41'0 0.0
2018-Feb-16 13:00N 34°57' E 136°41'0 0.0
2018-Feb-16 12:30N 34°57' E 136°41'0 0.0
2018-Feb-16 12:00N 34°57' E 136°41'0 0.1
2018-Feb-16 11:30N 34°57' E 136°41'0 0.0
2018-Feb-16 11:00N 34°57' E 136°41'0 0.0
2018-Feb-16 10:30N 34°57' E 136°41'0 0.0
2018-Feb-16 10:00N 34°57' E 136°41'0 0.0
2018-Feb-16 09:30N 34°57' E 136°41'0 0.0
2018-Feb-16 09:00N 34°57' E 136°41'0 0.0
2018-Feb-16 08:30N 34°57' E 136°41'0 0.0
2018-Feb-16 07:59N 34°57' E 136°41'0 0.0
2018-Feb-16 07:30N 34°57' E 136°41'0 0.0
2018-Feb-16 07:00N 34°57' E 136°41'0 0.0
2018-Feb-16 06:30N 34°57' E 136°41'0 0.0
2018-Feb-16 06:00N 34°57' E 136°41'0 0.0
2018-Feb-16 05:31N 34°57' E 136°41'0 0.0
2018-Feb-16 05:01N 34°57' E 136°41'4 7.1
2018-Feb-16 04:30N 34°54' E 136°42'611.7
2018-Feb-16 04:01N 34°48' E 136°45'611.5
2018-Feb-16 03:28N 34°42' E 136°46'511.4
2018-Feb-16 03:00N 34°37' E 136°47'9 9.7
2018-Feb-16 02:07N 34°30' E 136°52'101 7.7
2018-Feb-15 12:54N 33°56' E 134°57'911.7
2018-Feb-15 12:07N 34°03' E 134°50'111.7
2018-Feb-15 12:00N 34°04' E 134°49'1511.0
2018-Feb-15 10:36N 34°15' E 134°37'110.6
2018-Feb-15 10:29N 34°16' E 134°35'1 1.3
2018-Feb-15 10:00N 34°16' E 134°36'1 1.1
2018-Feb-15 09:29N 34°16' E 134°36'0 0.8
2018-Feb-15 09:00N 34°17' E 134°37'0 0.5
2018-Feb-15 08:30N 34°17' E 134°37'3 3.7
2018-Feb-15 07:49N 34°18' E 134°34'3 9.5
2018-Feb-15 07:30N 34°18' E 134°31'5 9.8
2018-Feb-15 07:00N 34°20' E 134°25'87 1.8
2018-Feb-13 07:08N 34°05' E 132°42'211.8
2018-Feb-13 07:00N 34°04' E 132°41'4911.2
2018-Feb-13 02:39N 33°30' E 131°58'211.0
2018-Feb-13 02:29N 33°29' E 131°57'611.3
2018-Feb-13 01:59N 33°25' E 131°52'611.9
2018-Feb-13 01:30N 33°21' E 131°46'611.8
2018-Feb-13 01:00N 33°18' E 131°41'2 3.4
2018-Feb-13 00:30N 33°16' E 131°40'0 0.0
2018-Feb-12 23:57N 33°16' E 131°40'0 0.0
2018-Feb-12 23:30N 33°16' E 131°40'0 0.0
2018-Feb-12 22:59N 33°16' E 131°40'2 2.7
2018-Feb-12 22:18N 33°17' E 131°38'2 5.7
2018-Feb-12 21:54N 33°15' E 131°36'0 0.4
2018-Feb-12 21:30N 33°15' E 131°36'0 0.0
2018-Feb-12 21:00N 33°15' E 131°36'0 0.0
2018-Feb-12 20:28N 33°15' E 131°36'0 0.0
2018-Feb-12 20:01N 33°15' E 131°36'0 0.0
2018-Feb-12 19:31N 33°15' E 131°36'0 0.0
2018-Feb-12 19:01N 33°15' E 131°36'0 0.0
2018-Feb-12 18:31N 33°15' E 131°36'0 0.0
2018-Feb-12 18:01N 33°15' E 131°36'0 0.0
2018-Feb-12 17:30N 33°15' E 131°36'0 0.0
2018-Feb-12 17:00N 33°15' E 131°36'0 0.0
2018-Feb-12 16:31N 33°15' E 131°36'0 0.0
2018-Feb-12 16:00N 33°15' E 131°36'0 0.0
2018-Feb-12 15:30N 33°15' E 131°36'0 0.0
2018-Feb-12 15:00N 33°15' E 131°36'0 0.0
2018-Feb-12 14:04N 33°15' E 131°36'0 0.0
2018-Feb-12 14:00N 33°15' E 131°36'0 0.0
2018-Feb-12 13:30N 33°15' E 131°36'0 0.0
2018-Feb-12 13:01N 33°15' E 131°36'0 0.0
2018-Feb-12 12:30N 33°15' E 131°36'0 0.0
2018-Feb-12 11:59N 33°15' E 131°36'0 0.0
2018-Feb-12 11:30N 33°15' E 131°36'0 0.0
2018-Feb-12 10:59N 33°15' E 131°36'0 0.0
2018-Feb-12 10:30N 33°15' E 131°36'0 0.0
2018-Feb-12 09:59N 33°15' E 131°36'0 0.0
2018-Feb-12 09:20N 33°15' E 131°36'0 0.0
2018-Feb-12 08:51N 33°15' E 131°36'0 0.0
2018-Feb-12 08:30N 33°15' E 131°36'0 0.0
2018-Feb-12 08:01N 33°15' E 131°36'0 0.0
2018-Feb-12 07:29N 33°15' E 131°36'0 0.0
2018-Feb-12 06:59N 33°15' E 131°36'0 0.0
2018-Feb-12 06:29N 33°15' E 131°36'0 0.0
2018-Feb-12 05:59N 33°15' E 131°36'0 0.0
2018-Feb-12 05:29N 33°15' E 131°36'0 0.0
2018-Feb-12 05:01N 33°15' E 131°36'0 0.0
2018-Feb-12 04:30N 33°15' E 131°36'0 0.0
2018-Feb-12 04:00N 33°15' E 131°36'0 0.0
2018-Feb-12 03:29N 33°15' E 131°36'0 0.0
2018-Feb-12 03:00N 33°15' E 131°36'0 0.0
2018-Feb-12 02:31N 33°15' E 131°36'0 0.0
2018-Feb-12 01:57N 33°15' E 131°36'0 0.0
2018-Feb-12 01:31N 33°15' E 131°36'0 0.0
2018-Feb-12 01:01N 33°15' E 131°36'0 0.0
2018-Feb-12 00:31N 33°15' E 131°36'0 0.0
2018-Feb-12 00:01N 33°15' E 131°36'0 0.0
2018-Feb-11 23:31N 33°15' E 131°36'0 0.0
2018-Feb-11 23:00N 33°15' E 131°36'0 0.0
2018-Feb-11 22:30N 33°15' E 131°36'0 0.0
2018-Feb-11 22:00N 33°15' E 131°36'0 0.0
2018-Feb-11 21:30N 33°15' E 131°36'0 0.0
2018-Feb-11 21:01N 33°15' E 131°36'0 0.0
2018-Feb-11 20:30N 33°15' E 131°36'0 0.0
2018-Feb-11 20:00N 33°15' E 131°36'0 0.0
2018-Feb-11 19:30N 33°15' E 131°36'0 0.0
2018-Feb-11 19:01N 33°15' E 131°36'0 0.0
2018-Feb-11 18:31N 33°15' E 131°36'0 0.0
2018-Feb-11 18:01N 33°15' E 131°36'0 0.0
2018-Feb-11 17:30N 33°15' E 131°36'0 0.0
2018-Feb-11 17:00N 33°15' E 131°36'0 0.0
2018-Feb-11 16:30N 33°15' E 131°36'0 0.0
2018-Feb-11 16:00N 33°15' E 131°36'0 0.0
2018-Feb-11 15:30N 33°15' E 131°36'0 0.0
2018-Feb-11 14:59N 33°15' E 131°36'0 0.0
2018-Feb-11 14:22N 33°15' E 131°36'0 0.0
2018-Feb-11 13:17N 33°15' E 131°36'0 0.0
2018-Feb-11 13:00N 33°15' E 131°36'0 0.0
2018-Feb-11 12:29N 33°15' E 131°36'0 0.0
2018-Feb-11 12:00N 33°15' E 131°36'0 0.0
2018-Feb-11 11:30N 33°15' E 131°36'0 0.0
2018-Feb-11 11:00N 33°15' E 131°36'0 0.0
2018-Feb-11 10:30N 33°15' E 131°36'0 0.0
2018-Feb-11 10:01N 33°15' E 131°36'0 0.0
2018-Feb-11 09:30N 33°15' E 131°36'0 0.0
2018-Feb-11 09:00N 33°15' E 131°36'2 4.0
2018-Feb-11 08:30N 33°17' E 131°37'611.9
2018-Feb-11 08:00N 33°22' E 131°41'711.9
2018-Feb-11 07:23N 33°28' E 131°46'511.9
2018-Feb-11 06:59N 33°33' E 131°47'611.8
2018-Feb-11 06:30N 33°38' E 131°44'612.3
2018-Feb-11 06:00N 33°42' E 131°38'612.3
2018-Feb-11 05:30N 33°44' E 131°31'612.5
2018-Feb-11 05:00N 33°47' E 131°24'612.4
2018-Feb-11 04:30N 33°49' E 131°18'612.3
2018-Feb-11 04:01N 33°52' E 131°11'612.4
2018-Feb-11 03:30N 33°55' E 131°05'611.3
2018-Feb-11 03:00N 33°58' E 130°59'4 8.9
2018-Feb-11 02:30N 33°55' E 130°56'4 7.7
2018-Feb-11 02:01N 33°55' E 130°51'0 0.1
2018-Feb-11 01:31N 33°55' E 130°51'0 0.0
2018-Feb-11 01:00N 33°55' E 130°51'0 0.0
2018-Feb-11 00:29N 33°55' E 130°51'0 0.0
2018-Feb-11 00:01N 33°55' E 130°51'0 0.0
2018-Feb-10 23:30N 33°55' E 130°51'0 0.0
2018-Feb-10 23:01N 33°55' E 130°51'1 1.5
2018-Feb-10 22:30N 33°55' E 130°52'5 9.5
2018-Feb-10 22:01N 33°57' E 130°57'510.2
2018-Feb-10 21:30N 33°58' E 131°03'0 0.8
2018-Feb-10 21:00N 33°58' E 131°03'0 0.0
2018-Feb-10 20:30N 33°58' E 131°03'0 0.0
2018-Feb-10 20:00N 33°58' E 131°03'0 0.0
2018-Feb-10 19:29N 33°58' E 131°03'0 0.0
2018-Feb-10 19:00N 33°58' E 131°03'0 0.0
2018-Feb-10 18:30N 33°58' E 131°03'0 0.0
2018-Feb-10 18:00N 33°58' E 131°03'0 0.0
2018-Feb-10 17:30N 33°58' E 131°03'0 0.1
2018-Feb-10 17:00N 33°58' E 131°03'0 0.0
2018-Feb-10 16:30N 33°58' E 131°03'0 0.0
2018-Feb-10 16:00N 33°58' E 131°03'0 0.0
2018-Feb-10 15:30N 33°58' E 131°03'0 0.0
2018-Feb-10 14:59N 33°58' E 131°03'0 0.0
2018-Feb-10 14:30N 33°58' E 131°03'0 0.0
2018-Feb-10 13:59N 33°58' E 131°03'0 0.0
2018-Feb-10 13:30N 33°58' E 131°03'0 0.0
2018-Feb-10 13:00N 33°58' E 131°03'0 0.0
2018-Feb-10 12:30N 33°58' E 131°03'0 0.0
2018-Feb-10 12:00N 33°58' E 131°03'0 0.0
2018-Feb-10 11:29N 33°58' E 131°03'0 0.0
2018-Feb-10 11:00N 33°58' E 131°03'0 0.0
2018-Feb-10 10:30N 33°58' E 131°03'0 0.1
2018-Feb-10 10:01N 33°58' E 131°03'0 0.0
2018-Feb-10 09:30N 33°58' E 131°03'5 9.3
2018-Feb-10 09:00N 33°55' E 131°08'511.0
2018-Feb-10 08:30N 33°52' E 131°13'611.1
2018-Feb-10 08:00N 33°51' E 131°20'611.1
2018-Feb-10 07:30N 33°50' E 131°26'510.9
2018-Feb-10 07:00N 33°49' E 131°33'510.9
2018-Feb-10 06:30N 33°48' E 131°39'611.1
2018-Feb-10 05:58N 33°47' E 131°46'511.4
2018-Feb-10 05:30N 33°46' E 131°53'  

Dump ship's entire track history